Weather History for KOSC - October, 2012

Change the Weather History Date:

Tuesday, October 9, 2012

  Actual Average Record
Temperature  
Mean Temperature 55 °F -  
Max Temperature 62 °F 59 °F 80 °F (2011)
Min Temperature 48 °F 40 °F 32 °F (2014)
Degree Days  
Heating Degree Days 10    
Growing Degree Days 5 (Base 50)    
Moisture  
Dew Point 36 °F    
Average Humidity 51    
Maximum Humidity 59    
Minimum Humidity 38    
Precipitation  
Precipitation 0.00 in - - ()
Sea Level Pressure  
Sea Level Pressure 29.88 in    
Wind  
Wind Speed 16 mph (SSW)    
Max Wind Speed 24 mph    
Max Gust Speed 34 mph    
Visibility 10 miles    
Events      
Averages and records for this station are not official NWS values.
T = Trace of Precipitation, MM = Missing Value Source: NWS Daily Summary

Daily Weather History Graph

Daily Weather History Graph

Search for Another Location

Airport or City:

Trip Planner

Search our weather history database for the weather conditions in past years. The results will help you decide how hot, cold, wet, or windy it might be!

Date:

Astronomy

Oct. 09, 2012 Rise Set
Actual Time 7:41 AM EDT 6:58 PM EDT
Civil Twilight 7:12 AM EDT 7:27 PM EDT
Nautical Twilight 6:38 AM EDT 8:01 PM EDT
Astronomical Twilight 6:05 AM EDT 8:35 PM EDT
Moon 1:03 AM EDT (10/9) 3:38 PM EDT (10/9)
Length of Visible Light 12h 15m
Length of Day
11h 17m
Last Quarter, 37% of the Moon is Illuminated
Oct 9
Last Quarter
Oct 15
New
Oct 21
First Quarter
Oct 29
Full
Nov 6
Last Quarter

Hourly Weather History & Observations

Time (EDT) Temp. Dew Point Humidity Pressure Visibility Wind Dir Wind Speed Gust Speed Precip Events Conditions
12:13 AM 50.0 °F 31.1 °F 48% 30.02 in 10.0 mi SSW 15.0 mph 18.4 mph N/A   Clear
12:33 AM 50.4 °F 31.6 °F 49% 30.02 in 10.0 mi SSW 13.8 mph 18.4 mph N/A   Clear
12:53 AM 50.4 °F 31.8 °F 49% 30.02 in 10.0 mi SSW 12.7 mph 19.6 mph N/A   Scattered Clouds
1:13 AM 50.2 °F 31.8 °F 49% 30.01 in 10.0 mi SSW 13.8 mph 21.9 mph N/A   Clear
1:33 AM 50.2 °F 31.8 °F 49% 30.01 in 10.0 mi SSW 13.8 mph 20.7 mph N/A   Scattered Clouds
1:53 AM 50.0 °F 32.0 °F 50% 30.01 in 10.0 mi SSW 12.7 mph - N/A   Scattered Clouds
2:13 AM 50.0 °F 32.0 °F 50% 30.01 in 10.0 mi SSW 12.7 mph 20.7 mph N/A   Mostly Cloudy
2:33 AM 49.1 °F 32.0 °F 52% 30.01 in 10.0 mi SSW 13.8 mph 19.6 mph N/A   Scattered Clouds
2:53 AM 49.1 °F 32.0 °F 52% 30.01 in 10.0 mi SSW 12.7 mph - N/A   Clear
3:13 AM 48.6 °F 32.0 °F 53% 29.99 in 10.0 mi SSW 11.5 mph 19.6 mph N/A   Clear
3:33 AM 48.6 °F 32.4 °F 54% 29.98 in 10.0 mi SSW 13.8 mph 19.6 mph N/A   Clear
3:53 AM 48.6 °F 32.5 °F 54% 29.98 in 10.0 mi SSW 11.5 mph 20.7 mph N/A   Clear
4:13 AM 48.6 °F 32.5 °F 54% 29.98 in 10.0 mi SSW 12.7 mph 18.4 mph N/A   Scattered Clouds
4:33 AM 48.6 °F 32.5 °F 54% 29.98 in 10.0 mi SSW 13.8 mph 19.6 mph N/A   Mostly Cloudy
4:53 AM 48.6 °F 32.0 °F 53% 29.97 in 10.0 mi SSW 15.0 mph 20.7 mph N/A   Mostly Cloudy
5:13 AM 48.7 °F 32.0 °F 52% 29.97 in 10.0 mi SSW 16.1 mph 21.9 mph N/A   Mostly Cloudy
5:33 AM 48.7 °F 31.6 °F 52% 29.96 in 10.0 mi SSW 17.3 mph 24.2 mph N/A   Scattered Clouds
5:53 AM 48.7 °F 31.6 °F 52% 29.96 in 10.0 mi SSW 15.0 mph 20.7 mph N/A   Scattered Clouds
6:13 AM 48.6 °F 32.0 °F 53% 29.96 in 10.0 mi SSW 12.7 mph 20.7 mph N/A   Overcast
6:33 AM 48.7 °F 32.0 °F 52% 29.95 in 10.0 mi SSW 13.8 mph - N/A   Scattered Clouds
6:53 AM 49.1 °F 32.0 °F 52% 29.95 in 10.0 mi SSW 13.8 mph 21.9 mph N/A   Scattered Clouds
7:13 AM 49.1 °F 32.4 °F 53% 29.96 in 10.0 mi SSW 12.7 mph 20.7 mph N/A   Overcast
7:33 AM 49.1 °F 32.9 °F 54% 29.95 in 10.0 mi SSW 16.1 mph 21.9 mph N/A   Mostly Cloudy
7:53 AM 49.1 °F 33.6 °F 55% 29.95 in 10.0 mi SSW 16.1 mph 19.6 mph N/A   Scattered Clouds
8:13 AM 48.9 °F 33.8 °F 56% 29.94 in 10.0 mi SSW 13.8 mph 20.7 mph N/A   Clear
8:33 AM 49.1 °F 33.8 °F 56% 29.95 in 10.0 mi SSW 12.7 mph 20.7 mph N/A   Clear
8:53 AM 49.6 °F 34.0 °F 55% 29.95 in 10.0 mi SSW 15.0 mph 23.0 mph N/A   Clear
9:13 AM 50.9 °F 35.2 °F 55% 29.95 in 10.0 mi SSW 13.8 mph 19.6 mph N/A   Clear
9:33 AM 52.0 °F 35.1 °F 53% 29.94 in 10.0 mi SSW 24.2 mph 32.2 mph N/A   Clear
9:53 AM 51.6 °F 35.6 °F 54% 29.94 in 10.0 mi SSW 18.4 mph 31.1 mph N/A   Clear
10:13 AM 53.4 °F 35.6 °F 51% 29.93 in 10.0 mi SSW 19.6 mph 26.5 mph N/A   Clear
10:33 AM 52.9 °F 35.8 °F 52% 29.93 in 10.0 mi SSW 18.4 mph 26.5 mph N/A   Clear
10:53 AM 52.7 °F 36.9 °F 55% 29.92 in 10.0 mi SSW 17.3 mph 24.2 mph N/A   Clear
11:13 AM 53.8 °F 37.6 °F 54% 29.92 in 10.0 mi SSW 20.7 mph 29.9 mph N/A   Clear
11:33 AM 55.0 °F 38.1 °F 53% 29.92 in 10.0 mi SSW 19.6 mph 26.5 mph N/A   Clear
11:53 AM 54.0 °F 36.3 °F 51% 29.91 in 10.0 mi South 20.7 mph 26.5 mph N/A   Mostly Cloudy
12:13 PM 53.8 °F 36.7 °F 52% 29.91 in 10.0 mi SSW 19.6 mph 27.6 mph N/A   Overcast
12:33 PM 54.3 °F 37.4 °F 53% 29.90 in 10.0 mi South 17.3 mph 28.8 mph N/A   Mostly Cloudy
12:53 PM 54.9 °F 37.6 °F 52% 29.89 in 10.0 mi South 19.6 mph 27.6 mph N/A   Mostly Cloudy
1:13 PM 55.9 °F 38.3 °F 52% 29.88 in 10.0 mi South 18.4 mph 28.8 mph N/A   Mostly Cloudy
1:33 PM 57.2 °F 37.4 °F 48% 29.87 in 10.0 mi South 21.9 mph 26.5 mph N/A   Mostly Cloudy
1:53 PM 57.4 °F 37.9 °F 48% 29.85 in 10.0 mi South 23.0 mph 29.9 mph N/A   Scattered Clouds
2:13 PM 58.1 °F 36.5 °F 44% 29.84 in 10.0 mi SSW 20.7 mph 26.5 mph N/A   Mostly Cloudy
2:33 PM 58.3 °F 36.3 °F 44% 29.83 in 10.0 mi SSW 24.2 mph 31.1 mph N/A   Scattered Clouds
2:53 PM 59.4 °F 36.7 °F 43% 29.82 in 10.0 mi South 19.6 mph 32.2 mph N/A   Clear
3:13 PM 59.9 °F 38.5 °F 45% 29.82 in 10.0 mi SSW 17.3 mph 24.2 mph N/A   Clear
3:33 PM 60.3 °F 37.9 °F 44% 29.82 in 10.0 mi SSW 20.7 mph 31.1 mph N/A   Clear
3:53 PM 61.0 °F 37.0 °F 41% 29.82 in 10.0 mi SSW 16.1 mph 34.5 mph N/A   Scattered Clouds
4:13 PM 61.7 °F 35.8 °F 38% 29.80 in 10.0 mi South 23.0 mph 33.4 mph N/A   Scattered Clouds
4:33 PM 61.7 °F 36.0 °F 38% 29.80 in 10.0 mi South 20.7 mph 31.1 mph N/A   Clear
4:53 PM 62.1 °F 36.5 °F 39% 29.79 in 10.0 mi SSW 20.7 mph 32.2 mph N/A   Scattered Clouds
5:13 PM 61.3 °F 37.2 °F 41% 29.79 in 10.0 mi SSW 17.3 mph 25.3 mph N/A   Scattered Clouds
5:33 PM 60.8 °F 38.7 °F 44% 29.78 in 10.0 mi South 17.3 mph 25.3 mph N/A   Clear
5:53 PM 60.8 °F 39.0 °F 45% 29.77 in 10.0 mi South 18.4 mph 26.5 mph N/A   Clear
6:13 PM 60.6 °F 38.1 °F 43% 29.76 in 10.0 mi South 20.7 mph 32.2 mph N/A   Clear
6:33 PM 59.5 °F 39.2 °F 47% 29.76 in 10.0 mi South 15.0 mph 23.0 mph N/A   Clear
6:54 PM 58.6 °F 39.7 °F 49% 29.76 in 10.0 mi South 16.1 mph 25.3 mph N/A   Clear
7:13 PM 58.6 °F 40.6 °F 51% 29.75 in 10.0 mi South 17.3 mph 23.0 mph N/A   Clear
7:33 PM 58.6 °F 40.6 °F 51% 29.75 in 10.0 mi SSW 17.3 mph 25.3 mph N/A   Clear
7:54 PM 58.5 °F 40.8 °F 52% 29.76 in 10.0 mi SSW 16.1 mph 25.3 mph N/A   Clear
8:13 PM 58.5 °F 39.6 °F 49% 29.76 in 10.0 mi SSW 18.4 mph 26.5 mph N/A   Clear
8:33 PM 58.1 °F 40.3 °F 52% 29.77 in 10.0 mi South 11.5 mph 19.6 mph N/A   Clear
8:53 PM 57.6 °F 41.9 °F 56% 29.76 in 10.0 mi South 11.5 mph 16.1 mph N/A   Clear
9:13 PM 57.2 °F 42.1 °F 57% 29.76 in 10.0 mi South 13.8 mph 20.7 mph N/A   Clear
9:33 PM 56.8 °F 42.8 °F 59% 29.75 in 10.0 mi South 15.0 mph 19.6 mph N/A   Clear
9:53 PM 56.5 °F 41.2 °F 57% 29.74 in 10.0 mi South 16.1 mph 25.3 mph N/A   Clear
10:13 PM 56.3 °F 39.4 °F 53% 29.73 in 10.0 mi South 13.8 mph 21.9 mph N/A   Scattered Clouds
10:33 PM 56.3 °F 39.2 °F 53% 29.72 in 10.0 mi SSW 16.1 mph 24.2 mph N/A   Scattered Clouds
10:53 PM 55.9 °F 39.2 °F 53% 29.72 in 10.0 mi SSW 17.3 mph 25.3 mph N/A   Scattered Clouds
11:13 PM 56.3 °F 40.1 °F 55% 29.71 in 10.0 mi SSW 16.1 mph 28.8 mph N/A   Scattered Clouds
11:33 PM 56.3 °F 40.5 °F 55% 29.70 in 10.0 mi South 18.4 mph 25.3 mph N/A   Overcast
11:53 PM 56.5 °F 40.5 °F 55% 29.70 in 10.0 mi SSW 18.4 mph 27.6 mph N/A   Overcast